createdAt,value
2017-11-08T00:00:38.900Z,81.20
2017-11-08T00:03:06.533Z,81.70
2017-11-08T00:05:34.172Z,82.00
2017-11-08T00:10:42.326Z,83.20
2017-11-08T00:13:10.015Z,83.10
2017-11-08T00:15:37.649Z,81.70
2017-11-08T00:18:05.318Z,81.70
2017-11-08T00:20:36.043Z,82.30
2017-11-08T00:23:03.684Z,81.90
2017-11-08T00:25:31.329Z,82.30
2017-11-08T00:27:59.021Z,83.20
2017-11-08T00:30:26.661Z,83.40
2017-11-08T00:32:54.311Z,83.70
2017-11-08T00:35:21.995Z,84.20
2017-11-08T00:37:49.629Z,84.30
2017-11-08T00:40:17.257Z,84.50
2017-11-08T00:42:45.205Z,84.30
2017-11-08T00:45:13.217Z,83.80
2017-11-08T00:47:43.724Z,84.10
2017-11-08T00:50:11.416Z,84.10
2017-11-08T00:52:39.793Z,83.40
2017-11-08T00:57:44.853Z,83.40
2017-11-08T01:02:49.914Z,84.40
2017-11-08T01:05:19.191Z,83.60
2017-11-08T01:07:47.698Z,84.10
2017-11-08T01:10:15.325Z,83.90
2017-11-08T01:12:43.008Z,83.70
2017-11-08T01:15:10.628Z,83.20
2017-11-08T01:17:38.254Z,83.30
2017-11-08T01:20:05.940Z,83.50
2017-11-08T01:22:33.566Z,82.90
2017-11-08T01:25:01.203Z,82.80
2017-11-08T01:27:28.883Z,82.90
2017-11-08T01:29:57.461Z,82.50
2017-11-08T01:32:25.122Z,82.60
2017-11-08T01:37:37.540Z,82.90
2017-11-08T01:40:10.208Z,82.90
2017-11-08T01:42:37.828Z,82.20
2017-11-08T01:45:08.406Z,81.60
2017-11-08T01:47:36.086Z,80.70
2017-11-08T01:50:03.714Z,80.60
2017-11-08T01:52:31.339Z,80.50
2017-11-08T01:54:59.984Z,80.30
2017-11-08T01:57:27.614Z,79.20
2017-11-08T01:59:55.234Z,79.60
2017-11-08T02:02:22.923Z,79.60
2017-11-08T02:04:50.550Z,79.40
2017-11-08T02:07:18.195Z,79.30
2017-11-08T02:09:45.874Z,80.10
2017-11-08T02:12:13.501Z,79.60
2017-11-08T02:14:41.129Z,79.60
2017-11-08T02:17:08.829Z,80.10
2017-11-08T02:19:36.450Z,80.60
2017-11-08T02:22:04.076Z,80.90
2017-11-08T02:24:31.758Z,80.30
2017-11-08T02:27:05.093Z,81.60
2017-11-08T02:29:32.773Z,83.00
2017-11-08T02:32:00.406Z,83.80
2017-11-08T02:34:28.037Z,84.50
2017-11-08T02:36:55.732Z,85.00
2017-11-08T02:39:26.312Z,85.20
2017-11-08T02:41:53.935Z,84.30
2017-11-08T02:44:22.590Z,84.50
2017-11-08T02:49:18.659Z,85.40
2017-11-08T02:51:46.339Z,85.80
2017-11-08T02:54:14.910Z,85.50
2017-11-08T02:56:42.535Z,85.60
2017-11-08T02:59:10.221Z,85.50
2017-11-08T03:04:21.812Z,84.30
2017-11-08T03:06:49.438Z,84.10
2017-11-08T03:11:56.317Z,82.30
2017-11-08T03:14:23.941Z,82.20
2017-11-08T03:16:51.568Z,81.40
2017-11-08T03:19:19.255Z,81.60
2017-11-08T03:21:46.886Z,81.70
2017-11-08T03:24:14.509Z,83.10
2017-11-08T03:26:42.188Z,83.30
2017-11-08T03:29:09.812Z,83.50
2017-11-08T03:31:37.441Z,83.80
2017-11-08T03:34:05.128Z,82.90
2017-11-08T03:36:32.757Z,82.70
2017-11-08T03:39:01.172Z,82.90
2017-11-08T03:41:28.863Z,82.20
2017-11-08T03:43:56.495Z,82.10
2017-11-08T03:46:24.129Z,82.70
2017-11-08T03:48:51.813Z,83.30
2017-11-08T03:51:19.450Z,84.20
2017-11-08T03:53:47.074Z,84.90
2017-11-08T03:56:14.774Z,84.40
2017-11-08T03:58:42.409Z,84.40
2017-11-08T04:01:10.028Z,84.60
2017-11-08T04:03:37.714Z,84.90
2017-11-08T04:06:05.343Z,84.60
2017-11-08T04:08:32.971Z,84.70
2017-11-08T04:11:01.689Z,84.90
2017-11-08T04:13:29.309Z,85.10
2017-11-08T04:15:56.933Z,85.00
2017-11-08T04:18:25.592Z,84.90
2017-11-08T04:20:53.222Z,84.20
2017-11-08T04:23:20.855Z,83.50
2017-11-08T04:25:48.535Z,82.70
2017-11-08T04:28:16.160Z,82.30
2017-11-08T04:30:43.789Z,82.40
2017-11-08T04:33:11.485Z,82.80
2017-11-08T04:35:39.103Z,82.50
2017-11-08T04:40:45.905Z,81.50
2017-11-08T04:43:13.566Z,81.20
2017-11-08T04:45:41.191Z,80.50
2017-11-08T04:48:08.869Z,80.80
2017-11-08T04:50:36.511Z,81.10
2017-11-08T04:53:04.153Z,82.50
2017-11-08T04:55:31.864Z,82.70
2017-11-08T04:57:59.501Z,83.30
2017-11-08T05:00:28.084Z,83.40
2017-11-08T05:02:55.782Z,84.20
2017-11-08T05:05:23.419Z,84.60
2017-11-08T05:07:51.042Z,84.90
2017-11-08T05:10:18.727Z,84.60
2017-11-08T05:12:46.356Z,83.80
2017-11-08T05:15:13.988Z,84.50
2017-11-08T05:17:41.668Z,84.90
2017-11-08T05:22:36.936Z,85.10
2017-11-08T05:25:04.668Z,85.20
2017-11-08T05:29:59.910Z,84.30
2017-11-08T05:32:27.595Z,84.90
2017-11-08T05:34:56.044Z,84.30
2017-11-08T05:37:23.669Z,84.20
2017-11-08T05:39:51.370Z,83.70
2017-11-08T05:42:19.010Z,83.80
2017-11-08T05:44:47.412Z,83.10
2017-11-08T05:47:17.427Z,82.20
2017-11-08T05:49:47.277Z,83.20
2017-11-08T05:52:14.102Z,82.50
2017-11-08T06:02:37.039Z,82.00
2017-11-08T06:07:38.525Z,81.10
2017-11-08T06:10:06.285Z,80.30
2017-11-08T06:12:33.900Z,80.30
2017-11-08T06:15:01.547Z,80.30
2017-11-08T06:17:29.250Z,81.30
2017-11-08T06:19:56.882Z,81.60
2017-11-08T06:22:24.499Z,81.00
2017-11-08T06:24:52.195Z,81.20
2017-11-08T06:27:19.814Z,81.20
2017-11-08T06:29:47.432Z,80.80
2017-11-08T06:32:15.115Z,80.70
2017-11-08T06:37:10.373Z,81.30
2017-11-08T06:39:38.052Z,80.70
2017-11-08T06:42:05.672Z,80.60
2017-11-08T06:44:33.297Z,80.30
2017-11-08T06:47:00.982Z,80.50
2017-11-08T06:49:28.617Z,80.50
2017-11-08T06:51:56.278Z,80.30
2017-11-08T06:54:25.715Z,80.50
2017-11-08T06:56:53.383Z,81.40
2017-11-08T06:59:21.026Z,81.70
2017-11-08T07:01:48.737Z,81.80
2017-11-08T07:04:16.381Z,82.80
2017-11-08T07:06:45.446Z,82.60
2017-11-08T07:09:13.857Z,81.70
2017-11-08T07:11:41.481Z,82.80
2017-11-08T07:14:10.092Z,81.10
2017-11-08T07:16:38.124Z,81.10
2017-11-08T07:19:05.767Z,81.30
2017-11-08T07:21:33.396Z,81.00
2017-11-08T07:26:40.183Z,80.10
2017-11-08T07:29:08.652Z,79.60
2017-11-08T07:31:36.278Z,79.80
2017-11-08T07:34:03.914Z,80.20
2017-11-08T07:36:31.593Z,80.40
2017-11-08T07:38:59.220Z,79.90
2017-11-08T07:41:26.849Z,79.70
2017-11-08T07:43:54.553Z,80.00
2017-11-08T07:46:22.179Z,79.80
2017-11-08T07:48:49.815Z,79.70
2017-11-08T07:51:17.494Z,78.40
2017-11-08T07:53:46.107Z,80.00
2017-11-08T07:56:13.741Z,78.90
2017-11-08T07:58:41.453Z,78.30
2017-11-08T08:01:09.081Z,78.90
2017-11-08T08:03:36.703Z,79.60
2017-11-08T08:06:04.395Z,79.60
2017-11-08T08:08:32.018Z,78.70
2017-11-08T08:11:06.226Z,79.30
2017-11-08T08:13:34.693Z,79.80
2017-11-08T08:16:02.324Z,79.60
2017-11-08T08:18:30.028Z,79.40
2017-11-08T08:20:57.668Z,79.80
2017-11-08T08:23:25.297Z,78.20
2017-11-08T08:28:31.546Z,78.50
2017-11-08T08:31:00.208Z,78.20
2017-11-08T08:33:28.449Z,78.20
2017-11-08T08:35:56.864Z,77.20
2017-11-08T08:38:24.557Z,77.30
2017-11-08T08:40:53.749Z,77.20
2017-11-08T08:43:22.338Z,77.00
2017-11-08T08:45:50.874Z,76.30
2017-11-08T08:48:19.266Z,76.60
2017-11-08T08:50:48.854Z,76.70
2017-11-08T08:55:44.177Z,77.00
2017-11-08T08:58:11.816Z,77.00
2017-11-08T09:00:39.515Z,75.50
2017-11-08T09:03:07.140Z,76.80
2017-11-08T09:05:34.768Z,76.80
2017-11-08T09:08:02.465Z,77.00
2017-11-08T09:10:30.094Z,75.90
2017-11-08T09:12:57.721Z,76.10
2017-11-08T09:15:25.413Z,76.40
2017-11-08T09:17:53.053Z,75.60
2017-11-08T09:20:26.749Z,76.10
2017-11-08T09:22:55.236Z,75.10
2017-11-08T09:28:02.582Z,74.80
2017-11-08T09:30:30.604Z,72.70
2017-11-08T09:32:58.246Z,73.00
2017-11-08T09:35:25.943Z,73.60
2017-11-08T09:37:59.311Z,72.10
2017-11-08T09:40:26.995Z,72.70
2017-11-08T09:45:33.419Z,73.70
2017-11-08T09:52:57.143Z,71.30
2017-11-08T09:55:24.774Z,71.30
2017-11-08T09:57:52.405Z,70.60
2017-11-08T10:00:20.084Z,72.50
2017-11-08T10:02:47.735Z,71.10
2017-11-08T10:05:15.363Z,70.90
2017-11-08T10:07:43.057Z,70.40
2017-11-08T10:10:10.690Z,71.70
2017-11-08T10:12:42.172Z,72.30
2017-11-08T10:15:09.922Z,71.10
2017-11-08T10:17:37.466Z,71.60
2017-11-08T10:20:05.150Z,70.00
2017-11-08T10:22:32.801Z,70.00
2017-11-08T10:25:00.433Z,70.00
2017-11-08T10:27:28.069Z,70.60
2017-11-08T10:29:56.748Z,70.30
2017-11-08T10:32:24.379Z,70.40
2017-11-08T10:34:52.003Z,70.20
2017-11-08T10:37:19.688Z,69.60
2017-11-08T10:39:47.320Z,68.80
2017-11-08T10:42:15.756Z,70.40
2017-11-08T10:44:43.443Z,70.90
2017-11-08T10:47:11.075Z,70.10
2017-11-08T10:49:41.664Z,68.20
2017-11-08T10:52:09.364Z,70.10
2017-11-08T10:54:36.991Z,69.20
2017-11-08T10:57:04.628Z,71.80
2017-11-08T10:59:32.316Z,70.00
2017-11-08T11:01:59.961Z,67.50
2017-11-08T11:04:27.593Z,67.30
2017-11-08T11:06:56.128Z,68.20
2017-11-08T11:12:05.861Z,69.40
2017-11-08T11:14:33.487Z,69.10
2017-11-08T11:17:01.169Z,69.10
2017-11-08T11:19:28.831Z,69.10
2017-11-08T11:22:02.313Z,67.70
2017-11-08T11:24:33.954Z,67.50
2017-11-08T11:27:07.192Z,68.30
2017-11-08T11:29:34.894Z,68.10
2017-11-08T11:32:02.537Z,69.20
2017-11-08T11:34:30.158Z,68.40
2017-11-08T11:36:57.841Z,68.90
2017-11-08T11:39:25.481Z,68.60
2017-11-08T11:41:53.108Z,69.00
2017-11-08T11:44:21.622Z,71.10
2017-11-08T11:46:49.263Z,71.00
2017-11-08T11:49:17.716Z,71.60
2017-11-08T11:51:45.414Z,69.90
2017-11-08T11:54:14.000Z,69.00
2017-11-08T11:56:41.646Z,68.30
2017-11-08T11:59:09.336Z,68.70
2017-11-08T12:01:36.967Z,70.00
2017-11-08T12:04:04.609Z,68.70
2017-11-08T12:06:32.314Z,68.10
2017-11-08T12:09:00.778Z,69.60
2017-11-08T12:11:28.417Z,70.80
2017-11-08T12:13:56.102Z,71.50
2017-11-08T12:16:23.746Z,70.90
2017-11-08T12:18:51.380Z,69.70
2017-11-08T12:21:19.070Z,69.10
2017-11-08T12:23:47.221Z,69.00
2017-11-08T12:26:14.850Z,69.40
2017-11-08T12:33:53.294Z,69.20
2017-11-08T12:36:20.922Z,69.40
2017-11-08T12:38:48.548Z,69.60
2017-11-08T12:41:17.227Z,67.60
2017-11-08T12:43:44.873Z,68.70
2017-11-08T12:48:41.036Z,68.70
2017-11-08T12:51:08.675Z,66.00
2017-11-08T12:53:36.310Z,67.80
2017-11-08T12:56:04.018Z,67.10
2017-11-08T12:58:34.913Z,66.90
2017-11-08T13:01:02.547Z,66.10
2017-11-08T13:03:31.200Z,65.90
2017-11-08T13:06:02.672Z,66.60
2017-11-08T13:08:30.302Z,67.60
2017-11-08T13:13:38.888Z,69.50
2017-11-08T13:16:07.517Z,70.90
2017-11-08T13:18:36.171Z,71.00
2017-11-08T13:21:04.746Z,70.70
2017-11-08T13:23:33.425Z,69.90
2017-11-08T13:26:02.567Z,69.30
2017-11-08T13:28:30.210Z,70.10
2017-11-08T13:30:57.890Z,70.40
2017-11-08T13:33:25.530Z,70.80
2017-11-08T13:35:53.172Z,71.40
2017-11-08T13:38:20.867Z,72.00
2017-11-08T13:40:48.508Z,70.40
2017-11-08T13:43:16.495Z,68.30
2017-11-08T13:45:44.197Z,68.30
2017-11-08T13:48:11.832Z,69.30
2017-11-08T13:50:39.486Z,69.60
2017-11-08T13:53:07.190Z,70.00
2017-11-08T13:55:34.826Z,70.40
2017-11-08T13:58:02.465Z,70.40
2017-11-08T14:00:30.158Z,69.60
2017-11-08T14:02:57.788Z,69.50
2017-11-08T14:05:25.431Z,68.20
2017-11-08T14:07:53.974Z,68.30
2017-11-08T14:10:21.614Z,70.00
2017-11-08T14:12:50.578Z,72.50
2017-11-08T14:15:18.260Z,72.40
2017-11-08T14:17:45.901Z,71.10
2017-11-08T14:20:14.477Z,69.80
2017-11-08T14:22:42.181Z,69.90
2017-11-08T14:25:09.826Z,70.20
2017-11-08T14:27:37.451Z,70.90
2017-11-08T14:30:05.170Z,70.90
2017-11-08T14:32:33.580Z,70.60
2017-11-08T14:35:01.214Z,71.00
2017-11-08T14:37:28.935Z,70.40
2017-11-08T14:42:40.651Z,71.40
2017-11-08T14:45:08.286Z,70.90
2017-11-08T14:47:35.929Z,70.30
2017-11-08T14:50:03.611Z,71.10
2017-11-08T14:52:31.244Z,70.90
2017-11-08T14:57:37.656Z,71.80
2017-11-08T15:00:06.135Z,71.70
2017-11-08T15:02:34.727Z,70.70
2017-11-08T15:05:02.417Z,70.70
2017-11-08T15:07:30.058Z,70.90
2017-11-08T15:09:57.697Z,71.30
2017-11-08T15:12:31.090Z,70.10
2017-11-08T15:14:58.734Z,70.30
2017-11-08T15:17:26.360Z,70.10
2017-11-08T15:19:54.910Z,69.60
2017-11-08T15:22:22.558Z,68.80
2017-11-08T15:24:50.195Z,69.50
2017-11-08T15:27:17.896Z,71.30
2017-11-08T15:29:51.674Z,71.80
2017-11-08T15:32:19.394Z,71.10
2017-11-08T15:34:47.033Z,70.80
2017-11-08T15:37:15.500Z,69.30
2017-11-08T15:42:24.930Z,70.20
2017-11-08T15:47:21.977Z,69.70
2017-11-08T15:52:18.151Z,70.90
2017-11-08T15:54:45.790Z,71.30
2017-11-08T15:57:14.283Z,71.10
2017-11-08T15:59:41.980Z,71.50
2017-11-08T16:02:16.003Z,71.70
2017-11-08T16:04:43.686Z,70.80
2017-11-08T16:09:38.975Z,70.60
2017-11-08T16:12:07.512Z,70.90
2017-11-08T16:14:35.151Z,71.00
2017-11-08T16:17:02.791Z,69.50
2017-11-08T16:19:30.515Z,69.00
2017-11-08T16:21:59.103Z,69.40
2017-11-08T16:24:27.695Z,70.10
2017-11-08T16:26:55.422Z,70.10
2017-11-08T16:31:54.436Z,71.40
2017-11-08T16:34:22.127Z,72.00
2017-11-08T16:36:49.774Z,72.90
2017-11-08T16:39:18.221Z,73.10
2017-11-08T16:41:45.924Z,72.90
2017-11-08T16:44:13.584Z,72.50
2017-11-08T16:46:41.214Z,72.90
2017-11-08T16:49:08.910Z,72.70
2017-11-08T16:51:36.549Z,72.70
2017-11-08T16:54:04.187Z,72.80
2017-11-08T16:56:31.927Z,72.40
2017-11-08T17:01:28.139Z,71.70
2017-11-08T17:03:55.839Z,71.90
2017-11-08T17:14:00.419Z,73.80
2017-11-08T17:18:56.645Z,73.90
2017-11-08T17:21:24.269Z,73.30
2017-11-08T17:23:51.907Z,74.00
2017-11-08T17:26:19.588Z,74.30
2017-11-08T17:28:47.214Z,73.40
2017-11-08T17:31:14.840Z,71.70
2017-11-08T17:33:42.522Z,72.00
2017-11-08T17:36:10.156Z,72.10
2017-11-08T17:38:38.141Z,73.00
2017-11-08T17:41:06.690Z,73.50
2017-11-08T17:43:50.292Z,73.20
2017-11-08T17:46:17.997Z,72.50
2017-11-08T17:48:46.553Z,72.60
2017-11-08T17:51:14.170Z,72.00
2017-11-08T17:56:22.289Z,72.70
2017-11-08T17:58:50.006Z,73.30
2017-11-08T18:01:19.005Z,72.80
2017-11-08T18:03:48.119Z,72.50
2017-11-08T18:06:15.805Z,72.80
2017-11-08T18:08:43.437Z,73.00
2017-11-08T18:13:38.770Z,73.70
2017-11-08T18:16:06.438Z,73.20
2017-11-08T18:21:02.725Z,74.40
2017-11-08T18:23:30.890Z,72.70
2017-11-08T18:25:58.524Z,73.00
2017-11-08T18:28:30.500Z,72.90
2017-11-08T18:30:58.141Z,72.60
2017-11-08T18:33:25.784Z,73.00
2017-11-08T18:35:53.476Z,73.30
2017-11-08T18:38:21.121Z,73.40
2017-11-08T18:40:48.749Z,72.80
2017-11-08T18:43:16.942Z,72.90
2017-11-08T18:45:44.567Z,73.30
2017-11-08T18:48:12.206Z,73.80
2017-11-08T18:50:40.125Z,74.30
2017-11-08T18:53:07.530Z,74.10
2017-11-08T18:55:36.033Z,74.10
2017-11-08T18:58:03.753Z,74.30
2017-11-08T19:00:32.234Z,74.20
2017-11-08T19:03:01.374Z,73.80
2017-11-08T19:05:29.062Z,74.30
2017-11-08T19:10:24.361Z,73.60
2017-11-08T19:12:52.072Z,73.70
2017-11-08T19:17:59.490Z,73.20
2017-11-08T19:20:27.137Z,72.90
2017-11-08T19:22:54.773Z,72.30
2017-11-08T19:25:22.469Z,72.80
2017-11-08T19:27:50.121Z,72.70
2017-11-08T19:30:18.706Z,73.30
2017-11-08T19:32:46.427Z,73.10
2017-11-08T19:37:43.367Z,73.20
2017-11-08T19:40:12.682Z,73.00
2017-11-08T19:42:41.212Z,73.00
2017-11-08T19:45:09.056Z,72.20
2017-11-08T19:47:36.841Z,72.60
2017-11-08T19:50:05.462Z,72.20
2017-11-08T19:52:33.110Z,73.30
2017-11-08T19:55:00.796Z,73.60
2017-11-08T19:57:28.537Z,74.30
2017-11-08T19:59:56.196Z,75.10
2017-11-08T20:02:23.981Z,75.20
2017-11-08T20:04:51.590Z,74.80
2017-11-08T20:07:19.342Z,74.40
2017-11-08T20:09:47.313Z,74.30
2017-11-08T20:12:16.156Z,73.80
2017-11-08T20:14:43.850Z,73.40
2017-11-08T20:17:11.565Z,73.60
2017-11-08T20:19:39.431Z,73.10
2017-11-08T20:22:07.230Z,72.70
2017-11-08T20:24:35.134Z,74.20
2017-11-08T20:27:02.793Z,74.50
2017-11-08T20:29:30.708Z,74.60
2017-11-08T20:31:58.421Z,74.40
2017-11-08T20:34:27.154Z,74.60
2017-11-08T20:36:54.732Z,74.60
2017-11-08T20:42:01.570Z,75.50
2017-11-08T20:44:29.254Z,75.10
2017-11-08T20:46:56.898Z,74.90
2017-11-08T20:49:24.532Z,74.70
2017-11-08T20:51:52.227Z,74.80
2017-11-08T20:54:19.860Z,75.40
2017-11-08T20:56:47.519Z,74.30
2017-11-08T20:59:16.886Z,74.60
2017-11-08T21:01:44.519Z,73.90
2017-11-08T21:04:12.136Z,73.80
2017-11-08T21:06:39.845Z,74.00
2017-11-08T21:09:07.524Z,74.30
2017-11-08T21:11:35.183Z,74.50
2017-11-08T21:14:03.015Z,74.90
2017-11-08T21:16:30.612Z,75.30
2017-11-08T21:18:58.781Z,75.30
2017-11-08T21:21:26.506Z,75.40
2017-11-08T21:23:54.096Z,75.30
2017-11-08T21:26:21.734Z,75.30
2017-11-08T21:28:49.437Z,75.20
2017-11-08T21:31:17.133Z,75.50
2017-11-08T21:33:45.104Z,75.20
2017-11-08T21:36:12.865Z,75.20
2017-11-08T21:38:40.415Z,75.60
2017-11-08T21:41:08.405Z,75.40
2017-11-08T21:43:36.128Z,75.50
2017-11-08T21:46:03.753Z,75.60
2017-11-08T21:48:31.399Z,76.40
2017-11-08T21:50:59.114Z,76.50
2017-11-08T21:53:26.746Z,76.80
2017-11-08T21:55:54.365Z,76.40
2017-11-08T21:58:22.045Z,76.40
2017-11-08T22:00:49.677Z,76.00
2017-11-08T22:05:58.494Z,76.20
2017-11-08T22:08:26.129Z,76.90
2017-11-08T22:10:53.784Z,76.40
2017-11-08T22:13:21.475Z,76.00
2017-11-08T22:15:49.126Z,75.90
2017-11-08T22:18:16.898Z,75.90
2017-11-08T22:23:27.233Z,75.90
2017-11-08T22:25:54.899Z,76.00
2017-11-08T22:28:23.610Z,75.30
2017-11-08T22:30:51.237Z,74.90
2017-11-08T22:35:58.048Z,74.70
2017-11-08T22:38:27.095Z,74.70
2017-11-08T22:40:54.733Z,74.30
2017-11-08T22:43:25.419Z,74.10
2017-11-08T22:45:53.119Z,74.60
2017-11-08T22:48:20.772Z,75.00
2017-11-08T22:50:48.379Z,75.30
2017-11-08T22:55:57.083Z,75.90
2017-11-08T22:58:24.809Z,75.60
2017-11-08T23:03:24.125Z,75.60
2017-11-08T23:05:51.755Z,75.00
2017-11-08T23:08:19.395Z,74.90
2017-11-08T23:10:47.132Z,75.00
2017-11-08T23:13:15.347Z,74.90
2017-11-08T23:15:42.986Z,75.50
2017-11-08T23:18:11.627Z,75.00
2017-11-08T23:20:39.262Z,75.10
2017-11-08T23:23:07.840Z,76.20
2017-11-08T23:25:35.540Z,76.30
2017-11-08T23:28:03.169Z,76.20
2017-11-08T23:30:30.797Z,76.10
2017-11-08T23:32:59.453Z,75.70
2017-11-08T23:35:27.092Z,75.90
2017-11-08T23:37:54.717Z,75.70
2017-11-08T23:40:22.406Z,75.80
2017-11-08T23:42:50.062Z,75.90
2017-11-08T23:45:18.585Z,75.90
2017-11-08T23:47:46.281Z,76.00
2017-11-08T23:50:14.754Z,76.60
2017-11-08T23:52:42.382Z,76.80
2017-11-08T23:55:10.076Z,76.50
2017-11-08T23:57:37.706Z,76.60
